Time;durP1;ratioP1;P1;durP2;ratioP2;P2;SDS_P1;SDS_P2;PMS_P1;PMS_P2;Temp;Humidity;BMP_temperature;BMP_pressure;BME280_temperature;BME280_humidity;BME280_pressure;Samples;Min_cycle;Max_cycle;Signal;HPM_P1;HPM_P2
2022/05/19 00:01:34;;;;;;;5.05;2.40;;;7.40;1.00;;;7.80;72.52;99919.41;5040036;27;129390;-69
2022/05/19 00:04:05;;;;;;;5.00;2.20;;;7.30;1.00;;;7.78;72.90;99920.78;5041612;27;118532;-68
2022/05/19 00:06:33;;;;;;;4.75;2.30;;;7.40;1.00;;;7.78;73.32;99924.28;5039952;27;115118;-67
2022/05/19 00:09:02;;;;;;;6.97;2.88;;;7.20;1.00;;;7.74;73.35;99917.81;5039414;27;130620;-69
2022/05/19 00:11:33;;;;;;;4.40;2.40;;;7.10;1.00;;;7.68;73.54;99913.53;5039572;27;129760;-69
2022/05/19 00:14:02;;;;;;;5.90;2.55;;;6.90;1.00;;;7.60;73.49;99922.25;5039644;27;119819;-69
2022/05/19 00:16:30;;;;;;;5.93;2.58;;;6.90;1.00;;;7.56;73.37;99925.53;5040294;27;115620;-69
2022/05/19 00:18:59;;;;;;;4.45;2.50;;;6.80;1.00;;;7.50;73.95;99929.34;5039271;27;129970;-69
2022/05/19 00:21:29;;;;;;;5.57;2.35;;;6.70;1.00;;;7.46;73.87;99933.69;5041275;27;130945;-71
2022/05/19 00:23:58;;;;;;;7.20;2.72;;;6.60;1.00;;;7.40;74.29;99932.09;5039604;27;119594;-69
2022/05/19 00:26:26;;;;;;;5.45;2.50;;;6.60;1.00;;;7.36;74.56;99936.47;5039874;27;115580;-69
2022/05/19 00:28:54;;;;;;;5.25;2.53;;;6.60;1.00;;;7.33;74.62;99931.63;5039038;27;129875;-70
2022/05/19 00:31:23;;;;;;;6.13;2.60;;;6.60;1.00;;;7.33;74.60;99942.41;5039338;27;129610;-68
2022/05/19 00:33:52;;;;;;;4.10;2.20;;;6.50;1.00;;;7.28;75.06;99928.97;5039410;27;118771;-68
2022/05/19 00:36:22;;;;;;;5.68;2.60;;;6.40;1.00;;;7.23;75.15;99942.47;5058330;27;115577;-67
2022/05/19 00:38:52;;;;;;;7.30;2.70;;;6.30;1.00;;;7.10;75.57;99939.28;5038875;27;130255;-69
2022/05/19 00:41:20;;;;;;;4.32;2.70;;;6.30;1.00;;;7.08;76.42;99944.16;5039244;27;129996;-68
2022/05/19 00:43:59;;;;;;;5.93;2.80;;;6.30;1.00;;;7.00;76.58;99939.34;5039147;27;119353;-67
2022/05/19 00:46:33;;;;;;;5.95;2.40;;;6.20;1.00;;;6.97;76.83;99946.09;5039456;27;116050;-67
2022/05/19 00:49:07;;;;;;;3.53;2.13;;;6.30;1.00;;;6.92;76.67;99942.59;5038993;27;130134;-67
2022/05/19 00:51:43;;;;;;;5.45;2.53;;;6.20;1.00;;;6.87;76.77;99939.94;5039353;27;129675;-67
2022/05/19 00:54:17;;;;;;;6.78;2.33;;;6.10;1.00;;;6.88;76.15;99938.84;5039908;27;119530;-68
2022/05/19 00:56:54;;;;;;;4.45;2.13;;;6.10;1.00;;;6.87;75.80;99945.31;5040852;27;114010;-67
2022/05/19 00:59:32;;;;;;;5.47;2.15;;;6.00;1.00;;;6.81;76.18;99942.66;5038508;27;130210;-68
2022/05/19 01:02:02;;;;;;;6.68;2.20;;;6.00;1.00;;;6.79;76.46;99939.44;5038681;27;129589;-69
2022/05/19 01:04:37;;;;;;;5.65;2.53;;;6.00;1.00;;;6.74;75.66;99936.72;5038876;27;119214;-69
2022/05/19 01:07:18;;;;;;;4.88;2.08;;;6.10;1.00;;;6.74;74.80;99947.53;5037940;27;115393;-68
2022/05/19 01:09:49;;;;;;;4.65;2.58;;;6.20;1.00;;;6.76;75.00;99939.16;5038435;27;130372;-69
2022/05/19 01:12:18;;;;;;;3.88;1.77;;;6.20;1.00;;;6.69;74.27;99950.25;5038678;27;129615;-67
2022/05/19 01:14:46;;;;;;;2.72;1.80;;;6.40;1.00;;;6.73;73.73;99959.41;5039423;27;118872;-69
2022/05/19 01:17:15;;;;;;;5.28;1.90;;;6.60;1.00;;;6.78;73.23;99956.69;5041028;27;113854;-70
2022/05/19 01:19:49;;;;;;;4.30;2.00;;;6.60;1.00;;;6.80;72.89;99961.81;5038370;27;130029;-70
2022/05/19 01:22:25;;;;;;;6.22;1.98;;;6.70;1.00;;;6.80;72.97;99957.22;5038639;27;130199;-70
2022/05/19 01:25:04;;;;;;;5.53;2.20;;;6.80;1.00;;;6.83;72.90;99962.06;5038481;27;118925;-71
2022/05/19 01:27:34;;;;;;;4.63;1.98;;;6.70;1.00;;;6.82;73.20;99959.63;5040258;27;116171;-68
2022/05/19 01:30:04;;;;;;;5.95;1.90;;;6.60;1.00;;;6.82;73.90;99956.94;5042093;27;130616;-68
2022/05/19 01:32:33;;;;;;;5.07;2.20;;;6.40;1.00;;;6.77;73.77;99957.75;5041681;27;129518;-69
2022/05/19 01:35:01;;;;;;;4.40;2.42;;;6.30;1.00;;;6.69;74.15;99958.34;5044506;27;119122;-69
2022/05/19 01:37:30;;;;;;;5.53;2.10;;;6.10;1.00;;;6.63;74.14;99951.34;5042518;27;116097;-68
2022/05/19 01:40:37;;;;;;;4.93;2.30;;;6.00;1.00;;;6.52;74.68;99958.66;5034765;27;130109;-68
2022/05/19 01:43:19;;;;;;;4.07;2.20;;;5.80;1.00;;;6.43;75.43;99952.19;5026785;27;128248;-68
2022/05/19 01:46:02;;;;;;;7.72;1.92;;;5.70;1.00;;;6.25;77.15;99958.97;5041978;27;119493;-68
2022/05/19 01:48:38;;;;;;;8.73;2.30;;;5.50;1.00;;;6.10;77.83;99954.38;5042056;27;115593;-69
2022/05/19 01:51:13;;;;;;;6.25;2.20;;;5.40;1.00;;;6.00;77.97;99951.69;5041318;27;130663;-69
2022/05/19 01:53:54;;;;;;;5.70;2.17;;;5.30;1.00;;;5.92;78.62;99955.69;5041410;27;131118;-69
2022/05/19 01:56:32;;;;;;;5.40;2.13;;;5.20;1.00;;;5.71;81.13;99963.75;5042111;27;120030;-69
2022/05/19 01:59:16;;;;;;;4.30;2.40;;;5.00;1.00;;;5.52;82.71;99970.75;5041840;27;115575;-69
2022/05/19 02:01:56;;;;;;;4.70;2.83;;;4.90;1.00;;;5.32;84.24;99958.84;5041312;27;130177;-69
2022/05/19 02:04:33;;;;;;;6.07;2.53;;;4.80;1.00;;;5.30;84.14;99952.09;5041042;27;129823;-69
2022/05/19 02:07:05;;;;;;;6.63;2.45;;;4.70;1.00;;;5.30;84.24;99958.31;5041393;27;119644;-69
2022/05/19 02:09:37;;;;;;;4.28;2.50;;;4.60;1.00;;;5.25;84.05;99955.63;5045618;27;115351;-69
2022/05/19 02:12:08;;;;;;;5.47;2.40;;;4.60;1.00;;;5.22;84.40;99959.63;5041392;27;131292;-68
2022/05/19 02:14:43;;;;;;;6.15;2.60;;;4.50;1.00;;;5.22;84.20;99958.84;5039698;27;129725;-69
2022/05/19 02:17:17;;;;;;;5.95;2.70;;;4.50;1.00;;;5.26;84.44;99959.09;5041530;27;119267;-70
2022/05/19 02:19:53;;;;;;;6.00;2.60;;;4.50;1.00;;;5.24;84.91;99956.69;5041667;27;116239;-70
2022/05/19 02:22:26;;;;;;;7.90;2.72;;;4.50;1.00;;;5.15;85.83;99950.19;5040940;27;130392;-69
2022/05/19 02:25:00;;;;;;;5.78;2.80;;;4.50;1.00;;;5.14;86.13;99953.94;5040881;27;130570;-69
2022/05/19 02:27:37;;;;;;;6.50;2.78;;;4.40;1.00;;;5.08;86.22;99955.00;5009718;27;118152;-69
2022/05/19 02:30:12;;;;;;;8.10;3.53;;;4.40;1.00;;;5.02;86.60;99963.06;5041525;27;115201;-69
2022/05/19 02:32:42;;;;;;;5.53;2.63;;;4.40;1.00;;;4.98;87.19;99956.56;5040837;27;130621;-69
2022/05/19 02:35:12;;;;;;;5.10;2.97;;;4.40;1.00;;;5.03;87.49;99951.22;5041139;27;130299;-69
2022/05/19 02:37:42;;;;;;;5.18;2.33;;;4.40;1.00;;;5.12;86.82;99954.22;5022526;27;119149;-69
2022/05/19 02:40:14;;;;;;;5.57;3.00;;;4.50;1.00;;;5.17;86.44;99953.41;5041180;27;115518;-68
2022/05/19 02:42:43;;;;;;;4.32;2.72;;;4.50;1.00;;;5.29;85.75;99951.31;5040818;27;130071;-69
2022/05/19 02:45:15;;;;;;;4.65;2.67;;;4.50;1.00;;;5.45;85.63;99948.66;5040683;27;129618;-68
2022/05/19 02:47:44;;;;;;;6.65;2.72;;;4.60;1.00;;;5.60;84.69;99962.16;5041145;27;119006;-69
2022/05/19 02:50:16;;;;;;;6.20;2.80;;;4.70;1.00;;;5.69;84.10;99939.00;5043179;27;115132;-70
2022/05/19 02:52:44;;;;;;;4.53;2.13;;;4.80;1.00;;;5.77;84.04;99943.03;5040442;27;130355;-69
2022/05/19 02:55:14;;;;;;;7.32;3.00;;;4.90;1.00;;;5.93;83.73;99943.84;5042744;27;130237;-70
2022/05/19 02:57:43;;;;;;;4.57;2.45;;;4.90;1.00;;;5.95;83.32;99947.06;5040881;27;119317;-68
2022/05/19 03:00:18;;;;;;;7.70;2.38;;;5.00;1.00;;;5.91;83.67;99940.63;5041059;27;115312;-66
2022/05/19 03:02:48;;;;;;;4.82;2.58;;;5.00;1.00;;;6.45;83.19;99960.81;5040428;27;130429;-67
2022/05/19 03:05:21;;;;;;;5.05;2.13;;;5.50;1.00;;;7.55;81.44;99950.91;5039961;27;130359;-69
2022/05/19 03:07:50;;;;;;;5.45;2.13;;;6.30;1.00;;;8.63;76.04;99960.84;5040385;27;119374;-66
2022/05/19 03:10:19;;;;;;;5.32;2.30;;;6.90;1.00;;;9.22;71.45;99963.38;5040385;27;116770;-68
2022/05/19 03:12:48;;;;;;;6.75;2.33;;;7.10;1.00;;;9.22;69.36;99963.38;5040043;27;129963;-69
2022/05/19 03:15:18;;;;;;;6.25;2.30;;;6.70;1.00;;;9.38;68.25;99955.06;5059153;27;129673;-69
2022/05/19 03:17:47;;;;;;;3.42;1.95;;;6.60;1.00;;;9.38;67.69;99955.06;5042629;27;118956;-71
2022/05/19 03:20:16;;;;;;;5.45;3.22;;;6.60;1.00;;;9.43;67.26;99957.72;5039393;27;115247;-70
2022/05/19 03:22:44;;;;;;;6.55;3.50;;;6.60;1.00;;;9.39;67.02;99956.69;5040165;27;129830;-69
2022/05/19 03:25:13;;;;;;;9.73;4.68;;;6.70;1.00;;;9.30;66.98;99949.22;5039840;27;129868;-68
2022/05/19 03:27:42;;;;;;;8.40;3.40;;;6.80;1.00;;;9.16;67.33;99951.00;5040440;27;119236;-69
2022/05/19 03:30:16;;;;;;;6.35;2.58;;;6.80;1.00;;;9.16;67.11;99961.84;5042274;27;114191;-69
2022/05/19 03:32:46;;;;;;;7.13;2.83;;;7.00;1.00;;;9.18;67.48;99957.75;5038539;27;130153;-68
2022/05/19 03:35:16;;;;;;;6.30;2.50;;;7.10;1.00;;;9.38;66.65;99960.47;5059038;27;130092;-68
2022/05/19 03:37:45;;;;;;;5.47;2.22;;;7.40;1.00;;;9.63;65.90;99952.00;5040241;27;119282;-68
2022/05/19 03:40:16;;;;;;;7.35;2.55;;;7.60;1.00;;;9.89;64.87;99949.72;5040451;27;115269;-69
2022/05/19 03:42:45;;;;;;;3.50;1.90;;;7.90;1.00;;;10.19;63.83;99960.31;5039933;27;130362;-70
2022/05/19 03:45:14;;;;;;;8.93;2.50;;;8.20;1.00;;;10.27;63.03;99959.66;5039534;27;130546;-70
2022/05/19 03:47:43;;;;;;;5.50;2.22;;;8.10;1.00;;;10.13;63.78;99956.91;5040083;27;119478;-71
2022/05/19 03:50:13;;;;;;;3.85;2.00;;;8.10;1.00;;;10.10;63.62;99953.97;5039567;27;115640;-71
2022/05/19 03:52:43;;;;;;;6.05;2.08;;;8.10;1.00;;;10.02;64.26;99950.84;5038172;27;131098;-74
2022/05/19 03:55:15;;;;;;;7.72;2.50;;;8.20;1.00;;;9.95;64.56;99946.91;5040731;27;130025;-71
2022/05/19 03:57:43;;;;;;;3.58;1.80;;;8.20;1.00;;;10.07;64.30;99949.97;5039640;27;119355;-71
2022/05/19 04:00:14;;;;;;;5.03;2.30;;;8.20;1.00;;;10.21;64.08;99950.00;5042766;27;115732;-72
2022/05/19 04:02:43;;;;;;;4.97;2.03;;;8.40;1.00;;;10.29;63.54;99946.59;5059203;27;129828;-71
2022/05/19 04:05:14;;;;;;;7.72;2.10;;;8.40;1.00;;;10.34;62.91;99943.00;5059741;27;130723;-72
2022/05/19 04:07:44;;;;;;;5.05;2.28;;;8.40;1.00;;;10.36;63.36;99941.63;5059935;27;118867;-73
2022/05/19 04:10:13;;;;;;;6.10;2.20;;;8.50;1.00;;;10.35;63.03;99934.56;5049843;27;116148;-71
2022/05/19 04:12:43;;;;;;;6.93;2.30;;;8.60;1.00;;;10.39;63.53;99934.78;5057342;27;131479;-71
2022/05/19 04:15:13;;;;;;;6.78;2.35;;;8.70;1.00;;;10.37;63.32;99932.34;5060086;27;130724;-69
2022/05/19 04:17:42;;;;;;;4.60;2.10;;;8.60;1.00;;;10.55;63.55;99938.00;5059989;27;119453;-72
2022/05/19 04:20:13;;;;;;;4.32;2.15;;;8.90;1.00;;;10.69;62.19;99922.53;5060294;27;115773;-72
2022/05/19 04:22:41;;;;;;;5.40;2.10;;;9.00;1.00;;;10.79;61.42;99933.19;5040770;27;129275;-72
2022/05/19 04:25:12;;;;;;;3.88;1.90;;;8.90;1.00;;;10.85;61.13;99931.19;5058895;27;130379;-71
2022/05/19 04:27:40;;;;;;;9.98;2.70;;;8.90;1.00;;;10.93;60.75;99937.81;5059931;27;118994;-72
2022/05/19 04:30:11;;;;;;;11.15;2.70;;;8.80;1.00;;;11.00;60.85;99938.22;5045604;27;115505;-72
2022/05/19 04:32:40;;;;;;;8.52;2.20;;;8.90;1.00;;;11.12;60.68;99952.06;5057790;27;129967;-72
2022/05/19 04:35:09;;;;;;;9.52;2.75;;;9.10;1.00;;;11.39;59.81;99950.44;5059366;27;129495;-71
2022/05/19 04:37:39;;;;;;;4.50;1.95;;;9.30;1.00;;;11.66;58.26;99957.69;5060267;27;118826;-74
2022/05/19 04:40:10;;;;;;;4.25;2.05;;;9.20;1.00;;;11.66;57.81;99965.84;5060403;27;115370;-76
2022/05/19 04:42:40;;;;;;;7.03;2.10;;;9.10;1.00;;;11.56;59.45;99960.66;5056592;27;130335;-74
2022/05/19 04:45:10;;;;;;;8.30;2.40;;;9.30;1.00;;;11.66;58.76;99954.16;5058419;27;129381;-71
2022/05/19 04:47:39;;;;;;;5.25;2.35;;;9.20;1.00;;;11.75;57.91;99956.94;5057464;27;120203;-72
2022/05/19 04:50:09;;;;;;;12.45;3.10;;;9.40;1.00;;;11.84;57.88;99955.09;5061868;27;116662;-76
2022/05/19 04:52:39;;;;;;;9.02;2.33;;;9.50;1.00;;;11.71;58.57;99942.38;5059343;27;130386;-72
2022/05/19 04:55:10;;;;;;;9.35;2.30;;;9.40;1.00;;;11.76;58.15;99943.03;5059733;27;130383;-77
2022/05/19 04:57:41;;;;;;;7.13;2.25;;;9.40;1.00;;;11.69;58.67;99943.47;5058967;27;119218;-73
2022/05/19 05:00:13;;;;;;;16.17;2.75;;;9.60;1.00;;;11.73;58.71;99932.78;5060478;27;115495;-75
2022/05/19 05:02:42;;;;;;;7.45;2.28;;;9.50;1.00;;;11.72;58.37;99931.19;5061805;27;130173;-76
2022/05/19 05:05:12;;;;;;;5.72;2.03;;;9.40;1.00;;;11.73;58.87;99932.78;5062929;27;129368;-73
2022/05/19 05:07:42;;;;;;;11.02;2.47;;;9.70;1.00;;;12.00;57.98;99937.34;5065388;27;118692;-74
2022/05/19 05:10:11;;;;;;;24.30;4.10;;;9.90;1.00;;;12.19;57.44;99928.16;5063337;27;115651;-75
2022/05/19 05:12:39;;;;;;;9.30;2.50;;;9.90;1.00;;;12.27;57.22;99942.94;5062166;27;130057;-72
2022/05/19 05:15:10;;;;;;;5.13;1.80;;;9.70;1.00;;;12.22;56.76;99950.09;5061464;27;129200;-76
2022/05/19 05:17:40;;;;;;;6.28;2.35;;;9.60;1.00;;;12.22;57.17;99939.22;5062955;27;118794;-74
2022/05/19 05:20:12;;;;;;;5.22;2.03;;;9.80;1.00;;;12.25;56.99;99936.97;5063649;27;115614;-76
2022/05/19 05:22:43;;;;;;;6.47;2.20;;;10.10;99.90;;;12.23;56.88;99940.84;5062823;27;130361;-75
2022/05/19 05:25:16;;;;;;;5.68;1.92;;;10.00;99.90;;;12.37;55.79;99943.47;5064232;27;128715;-77
2022/05/19 05:27:45;;;;;;;4.72;1.77;;;9.90;99.90;;;12.67;55.68;99942.94;5062391;27;119817;-71
2022/05/19 05:30:17;;;;;;;5.88;2.00;;;10.00;99.90;;;12.92;54.48;99944.16;5063362;27;115071;-74
2022/05/19 05:32:46;;;;;;;5.30;1.90;;;10.30;99.90;;;13.01;53.41;99963.25;5062212;27;130584;-76
2022/05/19 05:35:14;;;;;;;7.13;2.05;;;10.40;99.90;;;12.49;54.29;99951.03;5064161;27;128996;-73
2022/05/19 05:37:44;;;;;;;4.40;1.92;;;9.70;99.90;;;12.44;54.67;99956.63;5062393;27;119667;-72
2022/05/19 05:40:14;;;;;;;5.03;2.05;;;10.00;99.90;;;12.67;55.16;99951.09;5062161;27;115790;-74
2022/05/19 05:42:43;;;;;;;7.28;2.20;;;10.40;99.90;;;12.49;54.35;99953.75;5064067;27;129003;-73
2022/05/19 05:45:12;;;;;;;5.57;2.50;;;10.10;99.90;;;12.43;54.14;99956.94;5062140;27;129741;-73
2022/05/19 05:47:40;;;;;;;4.80;1.85;;;10.30;99.90;;;12.52;53.43;99942.25;5062323;27;118826;-79
2022/05/19 05:50:10;;;;;;;5.68;1.92;;;10.40;99.90;;;12.83;53.50;99952.31;5062710;27;115106;-70
2022/05/19 05:52:39;;;;;;;4.95;1.73;;;10.50;99.90;;;12.80;52.04;99942.03;5062138;27;130177;-71
2022/05/19 05:55:09;;;;;;;7.65;1.75;;;10.20;99.90;;;12.46;52.04;99937.25;5062203;27;129643;-76
2022/05/19 05:57:38;;;;;;;5.63;2.03;;;10.10;99.90;;;12.44;52.73;99939.50;5062466;27;119028;-73
2022/05/19 06:00:10;;;;;;;9.88;2.30;;;10.20;99.90;;;12.43;52.33;99938.69;5062410;27;115907;-76
2022/05/19 06:02:42;;;;;;;8.55;1.98;;;10.20;99.90;;;12.52;50.09;99944.19;5061170;27;130712;-73
2022/05/19 06:05:12;;;;;;;5.18;1.60;;;10.10;99.90;;;12.39;50.74;99940.44;5060295;27;129311;-76
2022/05/19 06:07:40;;;;;;;5.22;1.73;;;10.00;99.90;;;12.32;50.34;99937.34;5063936;27;119526;-77
2022/05/19 06:10:12;;;;;;;5.20;1.80;;;9.90;99.90;;;12.43;50.31;99938.69;5061814;27;115436;-71
2022/05/19 06:12:42;;;;;;;6.95;2.22;;;10.10;99.90;;;12.49;50.40;99937.44;5060961;27;129400;-75
2022/05/19 06:15:14;;;;;;;4.57;1.60;;;10.40;99.90;;;12.58;49.18;99941.00;5060333;27;130913;-75
2022/05/19 06:17:43;;;;;;;7.68;2.40;;;10.50;99.90;;;12.57;46.79;99939.41;5063703;27;119239;-77
2022/05/19 06:20:16;;;;;;;11.75;2.03;;;10.40;99.90;;;12.50;46.97;99947.22;5062454;27;115427;-74
2022/05/19 06:22:46;;;;;;;7.35;1.75;;;10.60;99.90;;;12.90;43.31;99939.03;5061426;27;130920;-75
2022/05/19 06:25:20;;;;;;;3.83;1.40;;;10.50;99.90;;;13.21;43.88;99945.50;5046172;27;130569;-74
2022/05/19 06:27:50;;;;;;;9.73;1.98;;;10.90;99.90;;;13.39;44.38;99947.16;5061054;27;119297;-73
2022/05/19 06:30:22;;;;;;;4.75;1.52;;;11.10;99.90;;;13.63;42.41;99948.63;5062002;27;115770;-73
2022/05/19 06:32:51;;;;;;;4.10;1.60;;;11.00;99.90;;;13.65;42.79;99944.47;5061194;27;130197;-72
2022/05/19 06:35:22;;;;;;;8.25;4.82;;;11.00;99.90;;;13.79;42.54;99948.94;5061075;27;129896;-72
2022/05/19 06:37:51;;;;;;;3.85;1.67;;;11.10;99.90;;;13.76;39.41;99938.66;5061240;27;119560;-75
2022/05/19 06:40:24;;;;;;;6.70;2.22;;;11.30;99.90;;;13.83;39.01;99938.97;5043264;27;115280;-81
2022/05/19 06:42:53;;;;;;;4.75;1.30;;;11.40;99.90;;;13.77;37.31;99938.34;5060823;27;130198;-74
2022/05/19 06:45:25;;;;;;;3.35;1.30;;;11.40;99.90;;;13.94;36.92;99929.34;5059218;27;130407;-71
2022/05/19 06:47:54;;;;;;;7.90;1.73;;;11.20;99.90;;;14.02;37.79;99935.91;5059562;27;119746;-75
2022/05/19 06:50:26;;;;;;;8.02;1.60;;;11.80;99.90;;;13.83;36.30;99925.34;5062075;27;115372;-79
2022/05/19 06:53:01;;;;;;;7.05;1.70;;;11.40;99.90;;;13.88;38.04;99919.72;5060585;27;130387;-73
2022/05/19 06:55:33;;;;;;;3.40;1.57;;;11.50;99.90;;;14.13;36.07;99926.28;5061510;27;129444;-74
2022/05/19 06:58:03;;;;;;;4.50;1.58;;;11.60;99.90;;;14.78;34.59;99918.00;5061510;27;119122;-80
2022/05/19 07:00:34;;;;;;;5.82;1.40;;;12.00;99.90;;;15.27;33.17;99912.91;5061586;27;115427;-71
2022/05/19 07:03:04;;;;;;;6.28;1.73;;;11.90;99.90;;;15.24;33.58;99918.22;5062145;27;129945;-75
2022/05/19 07:05:37;;;;;;;14.40;2.83;;;12.00;99.90;;;14.92;34.21;99929.50;5061161;27;129035;-75
2022/05/19 07:08:07;;;;;;;8.52;1.50;;;12.50;99.90;;;15.17;33.65;99924.22;5061464;27;119518;-76
2022/05/19 07:10:37;;;;;;;5.00;1.40;;;12.50;99.90;;;15.07;33.26;99930.88;5061924;27;115518;-76
2022/05/19 07:13:06;;;;;;;5.10;1.65;;;12.00;99.90;;;15.10;32.80;99926.69;5061068;27;130154;-73
2022/05/19 07:15:35;;;;;;;6.93;1.80;;;11.90;99.90;;;15.00;33.58;99936.03;5060155;27;129620;-74
2022/05/19 07:18:04;;;;;;;11.45;1.95;;;12.10;99.90;;;15.09;33.54;99916.88;5061169;27;119380;-75
2022/05/19 07:20:43;;;;;;;11.68;2.25;;;11.90;99.90;;;15.12;33.11;99920.88;5061321;27;116779;-81
2022/05/19 07:23:15;;;;;;;9.73;2.35;;;12.30;99.90;;;15.26;33.24;99915.97;5060067;27;129871;-77
2022/05/19 07:25:45;;;;;;;2.28;1.55;;;12.30;99.90;;;15.22;31.05;99915.00;5060333;27;130106;-75
2022/05/19 07:28:15;;;;;;;3.92;1.35;;;12.50;99.90;;;15.21;31.22;99924.38;5059668;27;119121;-77
2022/05/19 07:30:46;;;;;;;4.72;1.30;;;12.20;99.90;;;15.18;31.58;99914.09;5046958;27;114784;-76
2022/05/19 07:33:28;;;;;;;5.93;1.20;;;12.20;99.90;;;15.09;31.27;99912.19;5043229;27;130508;-76
2022/05/19 07:36:08;;;;;;;6.72;1.17;;;12.10;99.90;;;14.82;33.38;99909.94;5061601;27;129641;-73
2022/05/19 07:38:37;;;;;;;6.45;1.70;;;12.50;99.90;;;14.90;33.38;99911.84;5063718;27;119074;-74
2022/05/19 07:41:08;;;;;;;5.60;1.63;;;12.50;99.90;;;15.26;33.19;99918.69;5062295;27;115743;-75
2022/05/19 07:43:41;;;;;;;6.50;1.90;;;12.90;99.90;;;15.35;26.87;99919.44;5059647;27;130601;-75
2022/05/19 07:46:11;;;;;;;4.63;1.10;;;12.80;99.90;;;15.20;27.20;99901.69;5060625;27;129374;-75
2022/05/19 07:48:45;;;;;;;2.80;1.10;;;13.00;99.90;;;15.71;26.93;99904.31;5061379;27;119334;-76
2022/05/19 07:51:17;;;;;;;;;;;13.60;99.90;;;15.77;25.90;99896.75;5064476;27;114434;-72
2022/05/19 07:53:46;;;;;;;6.47;1.40;;;13.00;99.90;;;15.94;26.96;99904.78;5076902;27;130960;-76
2022/05/19 07:56:16;;;;;;;3.47;1.35;;;13.40;99.90;;;16.08;26.59;99890.78;5061667;27;129773;-81
2022/05/19 07:58:46;;;;;;;1.23;0.88;;;13.70;99.90;;;16.39;26.46;99894.13;5045171;27;118831;-73
2022/05/19 08:01:15;;;;;;;23.77;2.63;;;13.60;99.90;;;16.43;26.47;99890.38;5028523;27;114302;-74
2022/05/19 08:03:43;;;;;;;14.75;2.50;;;13.80;99.90;;;16.44;27.37;99886.50;5041792;27;129823;-74
2022/05/19 08:06:12;;;;;;;14.45;1.45;;;13.90;99.90;;;16.66;26.59;99887.19;5045029;27;129020;-75
2022/05/19 08:08:41;;;;;;;2.03;0.80;;;14.30;99.90;;;16.79;25.11;99886.03;5060593;27;119394;-75
2022/05/19 08:11:09;;;;;;;3.60;1.05;;;13.80;99.90;;;16.97;26.00;99880.31;5060606;27;116401;-75
2022/05/19 08:16:33;;;;;;;5.75;1.17;;;14.20;99.90;;;17.16;27.61;99880.53;5025611;27;131225;-77
2022/05/19 08:19:02;;;;;;;8.57;1.98;;;14.10;99.90;;;17.21;26.28;99880.28;5060201;27;118812;-75
2022/05/19 08:21:31;;;;;;;14.35;2.35;;;14.10;99.90;;;17.40;27.09;99876.91;5060287;27;115149;-75
2022/05/19 08:24:00;;;;;;;12.82;1.92;;;14.50;99.90;;;17.89;25.32;99870.44;5059642;27;129926;-78
2022/05/19 08:26:29;;;;;;;4.25;1.10;;;14.90;99.90;;;18.29;25.76;99872.25;5060114;27;130960;-78
2022/05/19 08:28:59;;;;;;;9.55;1.48;;;15.40;99.90;;;18.67;23.04;99870.81;5060286;27;119758;-77
2022/05/19 08:31:27;;;;;;;13.75;2.10;;;15.60;99.90;;;18.94;23.99;99868.28;5060276;27;115350;-76
2022/05/19 08:33:58;;;;;;;7.80;1.42;;;15.60;99.90;;;19.14;22.91;99868.31;5044003;27;128836;-75
2022/05/19 08:36:27;;;;;;;2.90;1.20;;;15.80;99.90;;;18.87;23.39;99870.91;5043995;27;128366;-77
2022/05/19 08:38:55;;;;;;;1.90;1.05;;;15.60;99.90;;;18.11;21.79;99879.25;5059897;27;119548;-73
2022/05/19 08:41:30;;;;;;;2.47;1.10;;;14.80;99.90;;;17.69;23.29;99872.22;5044937;27;113807;-73
2022/05/19 08:44:05;;;;;;;6.05;1.42;;;14.60;99.90;;;17.40;23.75;99881.59;5059668;27;129896;-76
2022/05/19 08:46:37;;;;;;;2.97;1.10;;;14.70;99.90;;;17.33;24.08;99865.75;5059880;27;129675;-75
2022/05/19 08:49:13;;;;;;;3.35;1.00;;;14.70;99.90;;;17.22;23.87;99876.41;5060160;27;119735;-74
2022/05/19 08:51:54;;;;;;;4.82;1.20;;;14.80;99.90;;;17.31;23.92;99861.75;5060199;27;115794;-75
2022/05/19 08:54:25;;;;;;;2.58;1.13;;;14.70;99.90;;;17.46;24.10;99851.97;5040849;27;131517;-76
2022/05/19 08:57:05;;;;;;;7.28;1.60;;;14.80;99.90;;;17.93;23.60;99849.34;5063425;27;103262;-74
2022/05/19 08:59:50;;;;;;;7.05;1.70;;;15.70;99.90;;;19.03;23.68;99835.88;5059662;27;119741;-74
2022/05/19 09:02:28;;;;;;;11.38;2.10;;;16.30;99.90;;;19.74;22.71;99821.94;5059810;27;115556;-77
2022/05/19 09:05:10;;;;;;;2.75;1.08;;;16.80;99.90;;;20.16;21.08;99825.81;5027089;27;129271;-74
2022/05/19 09:07:59;;;;;;;6.32;1.50;;;16.20;99.90;;;19.95;21.90;99842.78;5059515;27;129898;-74
2022/05/19 09:10:57;;;;;;;2.33;1.05;;;16.60;99.90;;;19.66;21.51;99839.47;5037887;27;118434;-77
2022/05/19 09:13:37;;;;;;;18.35;2.40;;;16.40;99.90;;;19.58;22.21;99835.00;5038339;27;115648;-74
2022/05/19 09:16:13;;;;;;;7.40;1.70;;;16.50;99.90;;;19.72;22.94;99856.50;5038948;27;130490;-77
2022/05/19 09:18:48;;;;;;;4.88;1.30;;;16.40;99.90;;;19.51;23.80;99840.34;5038934;27;129468;-75
2022/05/19 09:21:17;;;;;;;5.80;1.38;;;16.10;99.90;;;18.88;24.31;99842.22;5039146;27;118839;-79
2022/05/19 09:23:45;;;;;;;2.65;1.20;;;15.60;99.90;;;18.24;25.72;99823.06;5039136;27;115432;-75
2022/05/19 09:26:46;;;;;;;3.20;1.13;;;15.70;99.90;;;18.11;26.25;99816.88;5038288;27;130342;-77
2022/05/19 09:29:19;;;;;;;4.47;1.08;;;15.60;99.90;;;18.08;26.65;99811.28;5038386;27;129499;-75
2022/05/19 09:31:53;;;;;;;2.72;1.38;;;15.60;99.90;;;17.96;27.17;99812.97;5038873;27;119175;-77
2022/05/19 09:34:29;;;;;;;11.77;2.53;;;15.60;99.90;;;18.12;28.27;99807.50;5038974;27;115452;-74
2022/05/19 09:37:07;;;;;;;6.87;1.53;;;16.00;99.90;;;18.39;28.09;99809.69;5038379;27;130497;-74
2022/05/19 09:39:44;;;;;;;6.40;1.20;;;15.80;99.90;;;18.52;27.43;99802.91;5037155;27;129594;-71
2022/05/19 09:42:19;;;;;;;2.95;1.35;;;16.30;99.90;;;18.99;26.95;99799.25;5038673;27;119524;-75
2022/05/19 09:44:56;;;;;;;5.30;1.40;;;15.90;99.90;;;19.27;27.63;99797.44;5039006;27;115147;-76
2022/05/19 09:47:33;;;;;;;3.15;1.38;;;16.40;99.90;;;19.56;27.67;99804.31;5039537;27;130193;-79
2022/05/19 09:50:11;;;;;;;8.85;1.60;;;16.90;99.90;;;19.65;26.31;99813.13;5042304;27;129483;-75
2022/05/19 09:52:43;;;;;;;10.07;2.00;;;16.70;99.90;;;19.84;26.90;99798.53;5042042;27;119033;-76
2022/05/19 09:55:15;;;;;;;6.15;1.42;;;17.20;99.90;;;20.38;25.22;99810.44;5042048;27;116254;-76
2022/05/19 09:57:56;;;;;;;4.78;1.33;;;17.20;99.90;;;19.87;26.31;99813.53;5026532;27;128669;-79
2022/05/19 10:00:37;;;;;;;6.35;1.30;;;17.10;99.90;;;19.92;25.47;99821.50;5041883;27;130039;-75
2022/05/19 10:03:22;;;;;;;18.40;2.25;;;17.00;99.90;;;19.93;26.41;99817.59;5040734;27;118978;-77
2022/05/19 10:05:56;;;;;;;8.15;1.55;;;17.50;99.90;;;20.04;26.34;99818.56;5010389;27;113829;-76
2022/05/19 10:08:28;;;;;;;9.73;1.48;;;17.10;99.90;;;19.90;26.10;99818.31;5026489;27;129612;-76
2022/05/19 10:11:04;;;;;;;8.05;1.67;;;16.80;99.90;;;19.77;26.24;99814.13;5041336;27;129825;-76
2022/05/19 10:13:39;;;;;;;9.50;2.00;;;16.60;99.90;;;20.16;27.60;99814.00;5041091;27;119445;-73
2022/05/19 10:16:20;;;;;;;6.37;1.50;;;17.70;99.90;;;20.42;25.70;99808.53;5041313;27;115245;-76
2022/05/19 10:19:14;;;;;;;3.63;1.50;;;17.60;99.90;;;19.79;27.25;99815.38;5043445;27;129678;-72
2022/05/19 10:22:11;;;;;;;8.10;1.48;;;16.70;99.90;;;19.56;28.50;99804.31;5042009;27;129080;-75
2022/05/19 10:25:02;;;;;;;3.75;1.35;;;16.90;99.90;;;19.32;28.36;99806.22;5027203;27;118263;-76
2022/05/19 10:33:39;;;;;;;2.55;1.40;;;16.60;99.90;;;19.55;29.11;99786.97;5041411;27;129799;-72
2022/05/19 10:36:21;;;;;;;4.43;1.42;;;17.20;99.90;;;19.07;28.83;99777.41;5042095;27;119729;-73
2022/05/19 10:39:14;;;;;;;6.93;1.70;;;16.30;99.90;;;18.96;29.47;99782.69;5023890;27;115058;-78
2022/05/19 10:42:01;;;;;;;15.20;2.83;;;16.50;99.90;;;18.72;30.71;99794.72;5041375;27;130913;-77
2022/05/19 10:45:15;;;;;;;7.95;2.00;;;16.80;99.90;;;18.74;30.51;99795.16;5041279;27;130023;-73
2022/05/19 10:48:13;;;;;;;11.48;1.73;;;16.40;99.90;;;18.61;30.58;99811.75;5041633;27;119449;-76
2022/05/19 10:50:48;;;;;;;12.45;2.35;;;16.50;99.90;;;18.79;31.59;99795.66;5027549;27;116458;-73
2022/05/19 10:54:06;;;;;;;6.40;2.22;;;16.80;99.90;;;19.24;31.19;99781.66;5040953;27;130618;-74